Terminal Aerodrome Forecast
Issued by NWS

Home | Current Version | Previous Version | Text Only | Print | Product List | Glossary On
Versions: 1 2 3 4 5 6 7 8 9 10 11 12 13 14 15 16 17 18 19 20 21 22 23 24 25 26 27 28 29 30 31 32 33 34 35 36 37 38 39 40 41 42 43 44 45 46 47 48 49 50
481
FTUS42 KRAH 221736
TAFINT
TAF
KINT 221736Z 2218/2318 VRB06KT 2SM BR OVC003
      TEMPO 2220/2224 P6SM NSW OVC006
     FM230000 08010KT P6SM VCSH OVC005
     FM230800 20010KT P6SM VCSH SCT010 BKN025=

USA.gov is the U.S. government's official web portal to all federal, state and local government web resources and services.